Terminal Aerodrome Forecast
Issued by NWS

Home | Current Version | Previous Version | Graphics & Text | Print | Product List | Glossary On
Versions: 1 2 3 4 5 6 7 8 9 10 11 12 13 14 15 16 17
942
FTUS41 KCLE 171728
TAFFDY
TAF
KFDY 171728Z 1718/1818 23009KT P6SM BKN045
     FM172000 25010KT P6SM SCT070=

USA.gov is the U.S. government's official web portal to all federal, state and local government web resources and services.